sensor_id;sensor_type;location;lat;lon;timestamp;pressure;altitude;pressure_sealevel;temperature;humidity
4273;BME280;63887;53.656;9.810;2023-02-02T00:01:09;101176.53;;;5.40;87.53
4273;BME280;63887;53.656;9.810;2023-02-02T00:03:35;101182.53;;;5.42;87.85
4273;BME280;63887;53.656;9.810;2023-02-02T00:06:02;101179.97;;;5.41;88.15
4273;BME280;63887;53.656;9.810;2023-02-02T00:08:29;101169.34;;;5.48;86.05
4273;BME280;63887;53.656;9.810;2023-02-02T00:10:55;101188.72;;;5.38;87.46
4273;BME280;63887;53.656;9.810;2023-02-02T00:13:22;101179.94;;;5.42;87.47
4273;BME280;63887;53.656;9.810;2023-02-02T00:15:49;101187.53;;;5.50;87.64
4273;BME280;63887;53.656;9.810;2023-02-02T00:18:17;101185.00;;;5.47;88.11
4273;BME280;63887;53.656;9.810;2023-02-02T00:20:43;101175.84;;;5.32;88.79
4273;BME280;63887;53.656;9.810;2023-02-02T00:23:13;101191.38;;;5.35;89.06
4273;BME280;63887;53.656;9.810;2023-02-02T00:25:39;101197.56;;;5.31;89.52
4273;BME280;63887;53.656;9.810;2023-02-02T00:28:06;101201.16;;;5.27;89.94
4273;BME280;63887;53.656;9.810;2023-02-02T00:30:32;101202.13;;;5.23;90.04
4273;BME280;63887;53.656;9.810;2023-02-02T00:33:00;101207.88;;;5.34;88.62
4273;BME280;63887;53.656;9.810;2023-02-02T00:35:26;101203.63;;;5.31;89.08
4273;BME280;63887;53.656;9.810;2023-02-02T00:37:52;101217.25;;;5.41;88.82
4273;BME280;63887;53.656;9.810;2023-02-02T00:40:19;101223.34;;;5.40;88.74
4273;BME280;63887;53.656;9.810;2023-02-02T00:42:45;101220.78;;;5.38;89.18
4273;BME280;63887;53.656;9.810;2023-02-02T00:45:14;101225.28;;;5.32;88.95
4273;BME280;63887;53.656;9.810;2023-02-02T00:47:40;101227.66;;;5.41;89.02
4273;BME280;63887;53.656;9.810;2023-02-02T00:50:08;101222.59;;;5.35;88.46
4273;BME280;63887;53.656;9.810;2023-02-02T00:52:34;101238.25;;;5.33;89.07
4273;BME280;63887;53.656;9.810;2023-02-02T00:55:01;101241.81;;;5.29;88.80
4273;BME280;63887;53.656;9.810;2023-02-02T00:57:27;101234.66;;;5.39;87.60
4273;BME280;63887;53.656;9.810;2023-02-02T00:59:54;101246.84;;;5.35;88.99
4273;BME280;63887;53.656;9.810;2023-02-02T01:02:20;101255.63;;;5.31;88.30
4273;BME280;63887;53.656;9.810;2023-02-02T01:04:46;101239.25;;;5.28;87.91
4273;BME280;63887;53.656;9.810;2023-02-02T01:07:14;101242.88;;;5.22;88.58
4273;BME280;63887;53.656;9.810;2023-02-02T01:09:41;101246.38;;;5.21;88.28
4273;BME280;63887;53.656;9.810;2023-02-02T01:12:07;101241.66;;;5.01;89.02
4273;BME280;63887;53.656;9.810;2023-02-02T01:14:33;101248.75;;;4.95;89.19
4273;BME280;63887;53.656;9.810;2023-02-02T01:17:00;101264.06;;;5.07;89.56
4273;BME280;63887;53.656;9.810;2023-02-02T01:19:26;101265.19;;;4.95;89.46
4273;BME280;63887;53.656;9.810;2023-02-02T01:21:52;101263.56;;;4.91;90.00
4273;BME280;63887;53.656;9.810;2023-02-02T01:24:20;101274.69;;;4.96;89.39
4273;BME280;63887;53.656;9.810;2023-02-02T01:26:46;101274.59;;;5.01;89.48
4273;BME280;63887;53.656;9.810;2023-02-02T01:29:13;101283.16;;;5.04;89.50
4273;BME280;63887;53.656;9.810;2023-02-02T01:31:39;101286.56;;;5.08;89.70
4273;BME280;63887;53.656;9.810;2023-02-02T01:34:06;101277.72;;;5.15;90.13
4273;BME280;63887;53.656;9.810;2023-02-02T01:36:32;101288.97;;;5.16;89.24
4273;BME280;63887;53.656;9.810;2023-02-02T01:38:59;101296.69;;;5.19;89.72
4273;BME280;63887;53.656;9.810;2023-02-02T01:41:26;101297.59;;;5.18;90.38
4273;BME280;63887;53.656;9.810;2023-02-02T01:43:54;101297.94;;;5.02;90.03
4273;BME280;63887;53.656;9.810;2023-02-02T01:46:22;101298.91;;;4.98;90.55
4273;BME280;63887;53.656;9.810;2023-02-02T01:51:33;101324.16;;;4.93;90.09
4273;BME280;63887;53.656;9.810;2023-02-02T01:54:00;101315.22;;;5.06;90.88
4273;BME280;63887;53.656;9.810;2023-02-02T01:56:29;101325.91;;;4.93;91.47
4273;BME280;63887;53.656;9.810;2023-02-02T01:58:56;101332.94;;;4.88;92.16
4273;BME280;63887;53.656;9.810;2023-02-02T02:01:23;101347.72;;;4.86;93.34
4273;BME280;63887;53.656;9.810;2023-02-02T02:03:50;101347.78;;;4.83;93.87
4273;BME280;63887;53.656;9.810;2023-02-02T02:06:17;101350.06;;;4.98;92.82
4273;BME280;63887;53.656;9.810;2023-02-02T02:08:46;101349.66;;;4.76;95.09
4273;BME280;63887;53.656;9.810;2023-02-02T02:11:16;101347.91;;;4.78;94.11
4273;BME280;63887;53.656;9.810;2023-02-02T02:13:44;101351.34;;;4.78;94.39
4273;BME280;63887;53.656;9.810;2023-02-02T02:16:31;101370.53;;;4.71;94.74
4273;BME280;63887;53.656;9.810;2023-02-02T02:19:04;101363.50;;;4.78;94.76
4273;BME280;63887;53.656;9.810;2023-02-02T02:21:39;101362.63;;;4.76;94.43
4273;BME280;63887;53.656;9.810;2023-02-02T02:27:44;101362.97;;;4.61;95.00
4273;BME280;63887;53.656;9.810;2023-02-02T02:30:26;101372.88;;;4.42;95.54
4273;BME280;63887;53.656;9.810;2023-02-02T02:33:00;101364.38;;;4.34;95.63
4273;BME280;63887;53.656;9.810;2023-02-02T02:35:30;101373.84;;;4.36;94.94
4273;BME280;63887;53.656;9.810;2023-02-02T02:37:59;101370.47;;;4.31;95.56
4273;BME280;63887;53.656;9.810;2023-02-02T02:40:31;101376.50;;;4.33;95.15
4273;BME280;63887;53.656;9.810;2023-02-02T02:43:01;101376.28;;;4.44;94.98
4273;BME280;63887;53.656;9.810;2023-02-02T02:45:28;101381.44;;;4.47;95.20
4273;BME280;63887;53.656;9.810;2023-02-02T02:47:56;101377.09;;;4.47;94.76
4273;BME280;63887;53.656;9.810;2023-02-02T02:50:26;101384.84;;;4.51;94.21
4273;BME280;63887;53.656;9.810;2023-02-02T02:52:54;101383.19;;;4.46;95.01
4273;BME280;63887;53.656;9.810;2023-02-02T02:55:22;101389.94;;;4.55;94.10
4273;BME280;63887;53.656;9.810;2023-02-02T02:57:56;101386.44;;;4.56;94.20
4273;BME280;63887;53.656;9.810;2023-02-02T03:00:34;101383.78;;;4.59;93.70
4273;BME280;63887;53.656;9.810;2023-02-02T03:03:04;101383.63;;;4.67;93.67
4273;BME280;63887;53.656;9.810;2023-02-02T03:05:36;101388.84;;;4.67;92.92
4273;BME280;63887;53.656;9.810;2023-02-02T03:08:06;101388.63;;;4.77;92.38
4273;BME280;63887;53.656;9.810;2023-02-02T03:10:33;101393.16;;;4.68;92.45
4273;BME280;63887;53.656;9.810;2023-02-02T03:13:00;101411.31;;;4.68;92.50
4273;BME280;63887;53.656;9.810;2023-02-02T03:15:31;101424.25;;;4.71;91.87
4273;BME280;63887;53.656;9.810;2023-02-02T03:17:57;101412.06;;;4.74;91.31
4273;BME280;63887;53.656;9.810;2023-02-02T03:20:24;101421.63;;;4.72;92.48
4273;BME280;63887;53.656;9.810;2023-02-02T03:22:51;101425.94;;;4.73;91.96
4273;BME280;63887;53.656;9.810;2023-02-02T03:25:18;101424.19;;;4.74;92.12
4273;BME280;63887;53.656;9.810;2023-02-02T03:27:44;101427.75;;;4.70;91.95
4273;BME280;63887;53.656;9.810;2023-02-02T03:30:11;101433.78;;;4.70;91.73
4273;BME280;63887;53.656;9.810;2023-02-02T03:32:38;101435.53;;;4.70;92.53
4273;BME280;63887;53.656;9.810;2023-02-02T03:35:05;101422.72;;;4.62;92.52
4273;BME280;63887;53.656;9.810;2023-02-02T03:37:32;101434.94;;;4.56;92.35
4273;BME280;63887;53.656;9.810;2023-02-02T03:39:59;101429.81;;;4.53;92.04
4273;BME280;63887;53.656;9.810;2023-02-02T03:42:26;101447.25;;;4.47;91.66
4273;BME280;63887;53.656;9.810;2023-02-02T03:44:52;101455.09;;;4.43;91.73
4273;BME280;63887;53.656;9.810;2023-02-02T03:47:18;101455.88;;;4.48;91.56
4273;BME280;63887;53.656;9.810;2023-02-02T03:49:45;101463.75;;;4.43;91.16
4273;BME280;63887;53.656;9.810;2023-02-02T03:52:11;101459.53;;;4.38;90.76
4273;BME280;63887;53.656;9.810;2023-02-02T03:54:37;101460.31;;;4.41;90.94
4273;BME280;63887;53.656;9.810;2023-02-02T03:57:05;101469.94;;;4.36;91.42
4273;BME280;63887;53.656;9.810;2023-02-02T03:59:31;101468.22;;;4.35;91.81
4273;BME280;63887;53.656;9.810;2023-02-02T04:01:58;101473.38;;;4.38;91.93
4273;BME280;63887;53.656;9.810;2023-02-02T04:04:24;101473.13;;;4.52;91.21
4273;BME280;63887;53.656;9.810;2023-02-02T04:06:50;101482.72;;;4.48;91.78
4273;BME280;63887;53.656;9.810;2023-02-02T04:09:16;101481.69;;;4.57;91.35
4273;BME280;63887;53.656;9.810;2023-02-02T04:11:43;101491.16;;;4.61;91.42
4273;BME280;63887;53.656;9.810;2023-02-02T04:14:11;101485.97;;;4.61;91.70
4273;BME280;63887;53.656;9.810;2023-02-02T04:16:37;101492.69;;;4.71;91.51
4273;BME280;63887;53.656;9.810;2023-02-02T04:19:03;101496.88;;;4.78;91.41
4273;BME280;63887;53.656;9.810;2023-02-02T04:21:30;101494.41;;;4.71;91.56
4273;BME280;63887;53.656;9.810;2023-02-02T04:23:56;101508.25;;;4.71;91.48
4273;BME280;63887;53.656;9.810;2023-02-02T04:26:23;101517.84;;;4.69;91.50
4273;BME280;63887;53.656;9.810;2023-02-02T04:28:50;101519.44;;;4.75;90.73
4273;BME280;63887;53.656;9.810;2023-02-02T04:31:18;101517.41;;;4.92;89.53
4273;BME280;63887;53.656;9.810;2023-02-02T04:33:44;101508.72;;;4.93;88.37
4273;BME280;63887;53.656;9.810;2023-02-02T04:36:10;101513.09;;;4.93;88.84
4273;BME280;63887;53.656;9.810;2023-02-02T04:38:37;101520.13;;;4.86;89.78
4273;BME280;63887;53.656;9.810;2023-02-02T04:41:05;101529.81;;;4.78;89.32
4273;BME280;63887;53.656;9.810;2023-02-02T04:43:32;101522.69;;;4.88;88.76
4273;BME280;63887;53.656;9.810;2023-02-02T04:45:58;101527.19;;;4.79;88.50
4273;BME280;63887;53.656;9.810;2023-02-02T04:48:26;101531.38;;;4.87;88.62
4273;BME280;63887;53.656;9.810;2023-02-02T04:50:56;101534.16;;;4.76;89.42
4273;BME280;63887;53.656;9.810;2023-02-02T04:53:23;101538.28;;;4.88;88.47
4273;BME280;63887;53.656;9.810;2023-02-02T04:55:49;101537.25;;;4.96;88.00
4273;BME280;63887;53.656;9.810;2023-02-02T04:58:15;101540.78;;;4.94;88.74
4273;BME280;63887;53.656;9.810;2023-02-02T05:00:42;101544.31;;;4.90;88.79
4273;BME280;63887;53.656;9.810;2023-02-02T05:03:09;101540.19;;;4.79;89.19
4273;BME280;63887;53.656;9.810;2023-02-02T05:05:36;101536.63;;;4.84;90.08
4273;BME280;63887;53.656;9.810;2023-02-02T05:08:03;101543.44;;;4.89;89.54
4273;BME280;63887;53.656;9.810;2023-02-02T05:10:31;101538.25;;;4.89;89.80
4273;BME280;63887;53.656;9.810;2023-02-02T05:12:58;101540.16;;;4.81;90.04
4273;BME280;63887;53.656;9.810;2023-02-02T05:15:24;101542.69;;;4.84;90.54
4273;BME280;63887;53.656;9.810;2023-02-02T05:17:51;101547.09;;;4.81;90.68
4273;BME280;63887;53.656;9.810;2023-02-02T05:20:18;101561.91;;;4.77;90.23
4273;BME280;63887;53.656;9.810;2023-02-02T05:22:48;101561.00;;;4.78;90.66
4273;BME280;63887;53.656;9.810;2023-02-02T05:25:14;101560.13;;;4.79;90.40
4273;BME280;63887;53.656;9.810;2023-02-02T05:27:41;101569.69;;;4.77;91.20
4273;BME280;63887;53.656;9.810;2023-02-02T05:30:08;101571.13;;;4.93;89.68
4273;BME280;63887;53.656;9.810;2023-02-02T05:32:35;101578.22;;;4.84;90.82
4273;BME280;63887;53.656;9.810;2023-02-02T05:35:02;101575.38;;;4.97;89.43
4273;BME280;63887;53.656;9.810;2023-02-02T05:37:28;101584.22;;;4.87;89.63
4273;BME280;63887;53.656;9.810;2023-02-02T05:39:56;101588.53;;;4.88;90.00
4273;BME280;63887;53.656;9.810;2023-02-02T05:42:22;101585.84;;;4.94;89.52
4273;BME280;63887;53.656;9.810;2023-02-02T05:44:48;101583.16;;;4.97;89.44
4273;BME280;63887;53.656;9.810;2023-02-02T05:47:15;101586.72;;;4.93;89.53
4273;BME280;63887;53.656;9.810;2023-02-02T05:49:41;101592.78;;;4.94;89.75
4273;BME280;63887;53.656;9.810;2023-02-02T05:52:08;101603.16;;;4.95;90.03
4273;BME280;63887;53.656;9.810;2023-02-02T05:54:35;101597.75;;;5.04;89.75
4273;BME280;63887;53.656;9.810;2023-02-02T05:57:02;101607.19;;;5.12;89.37
4273;BME280;63887;53.656;9.810;2023-02-02T05:59:29;101608.81;;;5.16;88.70
4273;BME280;63887;53.656;9.810;2023-02-02T06:01:55;101615.88;;;5.11;89.15
4273;BME280;63887;53.656;9.810;2023-02-02T06:04:21;101612.28;;;5.16;89.10
4273;BME280;63887;53.656;9.810;2023-02-02T06:06:48;101618.34;;;5.17;88.64
4273;BME280;63887;53.656;9.810;2023-02-02T06:09:14;101621.09;;;5.09;88.73
4273;BME280;63887;53.656;9.810;2023-02-02T06:11:42;101621.03;;;5.12;89.02
4273;BME280;63887;53.656;9.810;2023-02-02T06:14:09;101623.38;;;5.26;87.90
4273;BME280;63887;53.656;9.810;2023-02-02T06:16:36;101621.72;;;5.23;88.83
4273;BME280;63887;53.656;9.810;2023-02-02T06:19:02;101626.22;;;5.14;88.99
4273;BME280;63887;53.656;9.810;2023-02-02T06:21:29;101626.97;;;5.19;88.30
4273;BME280;63887;53.656;9.810;2023-02-02T06:23:56;101631.47;;;5.11;89.35
4273;BME280;63887;53.656;9.810;2023-02-02T06:26:22;101630.69;;;5.04;89.88
4273;BME280;63887;53.656;9.810;2023-02-02T06:28:49;101638.50;;;5.04;90.10
4273;BME280;63887;53.656;9.810;2023-02-02T06:31:17;101635.03;;;5.06;89.47
4273;BME280;63887;53.656;9.810;2023-02-02T06:33:44;101648.13;;;4.99;89.65
4273;BME280;63887;53.656;9.810;2023-02-02T06:36:10;101654.97;;;5.06;89.38
4273;BME280;63887;53.656;9.810;2023-02-02T06:38:37;101656.72;;;5.02;89.94
4273;BME280;63887;53.656;9.810;2023-02-02T06:41:03;101660.13;;;5.07;89.42
4273;BME280;63887;53.656;9.810;2023-02-02T06:43:30;101660.94;;;5.11;87.51
4273;BME280;63887;53.656;9.810;2023-02-02T06:45:57;101669.59;;;5.12;86.19
4273;BME280;63887;53.656;9.810;2023-02-02T06:48:25;101674.66;;;5.18;84.98
4273;BME280;63887;53.656;9.810;2023-02-02T06:50:51;101677.47;;;5.05;85.53
4273;BME280;63887;53.656;9.810;2023-02-02T06:53:18;101674.88;;;5.05;86.13
4273;BME280;63887;53.656;9.810;2023-02-02T06:55:51;101684.28;;;5.14;85.09
4273;BME280;63887;53.656;9.810;2023-02-02T06:58:17;101681.81;;;5.05;85.60
4273;BME280;63887;53.656;9.810;2023-02-02T07:00:44;101689.72;;;5.00;85.86
4273;BME280;63887;53.656;9.810;2023-02-02T07:03:11;101687.97;;;5.01;86.26
4273;BME280;63887;53.656;9.810;2023-02-02T07:05:38;101694.94;;;4.99;86.94
4273;BME280;63887;53.656;9.810;2023-02-02T07:08:05;101693.34;;;4.92;87.20
4273;BME280;63887;53.656;9.810;2023-02-02T07:10:31;101707.97;;;4.97;88.15
4273;BME280;63887;53.656;9.810;2023-02-02T07:12:57;101711.53;;;4.92;89.00
4273;BME280;63887;53.656;9.810;2023-02-02T07:15:24;101705.44;;;4.93;89.17
4273;BME280;63887;53.656;9.810;2023-02-02T07:17:50;101717.53;;;4.95;89.11
4273;BME280;63887;53.656;9.810;2023-02-02T07:20:16;101713.28;;;4.90;89.50
4273;BME280;63887;53.656;9.810;2023-02-02T07:22:44;101722.84;;;4.88;90.03
4273;BME280;63887;53.656;9.810;2023-02-02T07:25:10;101728.25;;;4.74;91.15
4273;BME280;63887;53.656;9.810;2023-02-02T07:27:37;101732.72;;;4.66;90.74
4273;BME280;63887;53.656;9.810;2023-02-02T07:30:03;101733.66;;;4.59;91.11
4273;BME280;63887;53.656;9.810;2023-02-02T07:32:30;101737.09;;;4.64;91.73
4273;BME280;63887;53.656;9.810;2023-02-02T07:34:56;101743.84;;;4.74;90.55
4273;BME280;63887;53.656;9.810;2023-02-02T07:37:22;101748.16;;;4.76;91.03
4273;BME280;63887;53.656;9.810;2023-02-02T07:39:50;101749.00;;;4.75;91.28
4273;BME280;63887;53.656;9.810;2023-02-02T07:42:17;101747.22;;;4.81;91.08
4273;BME280;63887;53.656;9.810;2023-02-02T07:44:45;101752.44;;;4.81;90.95
4273;BME280;63887;53.656;9.810;2023-02-02T07:47:11;101754.06;;;4.86;90.55
4273;BME280;63887;53.656;9.810;2023-02-02T07:49:37;101761.81;;;4.89;89.97
4273;BME280;63887;53.656;9.810;2023-02-02T07:52:04;101766.91;;;4.97;90.48
4273;BME280;63887;53.656;9.810;2023-02-02T07:54:31;101772.91;;;5.00;89.32
4273;BME280;63887;53.656;9.810;2023-02-02T07:56:58;101773.75;;;5.02;89.62
4273;BME280;63887;53.656;9.810;2023-02-02T07:59:26;101777.84;;;5.17;88.05
4273;BME280;63887;53.656;9.810;2023-02-02T08:01:52;101781.59;;;4.99;88.83
4273;BME280;63887;53.656;9.810;2023-02-02T08:04:18;101777.34;;;4.95;88.95
4273;BME280;63887;53.656;9.810;2023-02-02T08:06:45;101785.09;;;4.97;88.47
4273;BME280;63887;53.656;9.810;2023-02-02T08:09:12;101793.88;;;4.88;88.78
4273;BME280;63887;53.656;9.810;2023-02-02T08:11:38;101785.19;;;4.89;89.38
4273;BME280;63887;53.656;9.810;2023-02-02T08:14:06;101787.06;;;4.81;88.81
4273;BME280;63887;53.656;9.810;2023-02-02T08:16:33;101800.13;;;4.75;89.38
4273;BME280;63887;53.656;9.810;2023-02-02T08:18:59;101795.88;;;4.71;89.41
4273;BME280;63887;53.656;9.810;2023-02-02T08:21:26;101814.00;;;4.74;88.97
4273;BME280;63887;53.656;9.810;2023-02-02T08:23:52;101812.22;;;4.81;88.77
4273;BME280;63887;53.656;9.810;2023-02-02T08:26:19;101814.06;;;4.71;89.35
4273;BME280;63887;53.656;9.810;2023-02-02T08:28:46;101821.84;;;4.71;89.61
4273;BME280;63887;53.656;9.810;2023-02-02T08:31:16;101819.16;;;4.80;89.71
4273;BME280;63887;53.656;9.810;2023-02-02T08:33:42;101826.88;;;4.85;89.16
4273;BME280;63887;53.656;9.810;2023-02-02T08:36:10;101833.72;;;4.92;88.15
4273;BME280;63887;53.656;9.810;2023-02-02T08:38:37;101835.44;;;4.90;88.23
4273;BME280;63887;53.656;9.810;2023-02-02T08:41:04;101838.91;;;4.90;87.71
4273;BME280;63887;53.656;9.810;2023-02-02T08:43:30;101841.50;;;4.90;87.96
4273;BME280;63887;53.656;9.810;2023-02-02T08:45:57;101836.34;;;4.89;88.32
4273;BME280;63887;53.656;9.810;2023-02-02T08:48:24;101840.84;;;4.77;89.19
4273;BME280;63887;53.656;9.810;2023-02-02T08:50:51;101841.78;;;4.72;88.89
4273;BME280;63887;53.656;9.810;2023-02-02T08:53:18;101844.44;;;4.67;88.91
4273;BME280;63887;53.656;9.810;2023-02-02T08:55:45;101852.16;;;4.72;89.69
4273;BME280;63887;53.656;9.810;2023-02-02T08:58:11;101860.63;;;4.86;88.83
4273;BME280;63887;53.656;9.810;2023-02-02T09:00:37;101866.41;;;5.08;88.43
4273;BME280;63887;53.656;9.810;2023-02-02T09:03:04;101864.50;;;5.21;87.44
4273;BME280;63887;53.656;9.810;2023-02-02T09:05:31;101876.28;;;5.43;87.44
4273;BME280;63887;53.656;9.810;2023-02-02T09:07:58;101876.88;;;5.60;87.37
4273;BME280;63887;53.656;9.810;2023-02-02T09:10:24;101876.88;;;5.60;87.30
4273;BME280;63887;53.656;9.810;2023-02-02T09:12:51;101878.69;;;5.57;87.61
4273;BME280;63887;53.656;9.810;2023-02-02T09:15:17;101885.00;;;5.41;87.58
4273;BME280;63887;53.656;9.810;2023-02-02T09:17:43;101880.84;;;5.29;86.76
4273;BME280;63887;53.656;9.810;2023-02-02T09:20:10;101888.69;;;5.26;87.40
4273;BME280;63887;53.656;9.810;2023-02-02T09:22:38;101890.47;;;5.24;87.58
4273;BME280;63887;53.656;9.810;2023-02-02T09:25:05;101901.00;;;5.15;88.36
4273;BME280;63887;53.656;9.810;2023-02-02T09:27:35;101908.88;;;5.08;87.98
4273;BME280;63887;53.656;9.810;2023-02-02T09:30:01;101910.53;;;5.14;88.19
4273;BME280;63887;53.656;9.810;2023-02-02T09:32:28;101902.59;;;5.25;87.42
4273;BME280;63887;53.656;9.810;2023-02-02T09:34:54;101909.66;;;5.15;87.73
4273;BME280;63887;53.656;9.810;2023-02-02T09:37:20;101910.66;;;5.06;88.39
4273;BME280;63887;53.656;9.810;2023-02-02T09:39:48;101918.34;;;5.13;88.29
4273;BME280;63887;53.656;9.810;2023-02-02T09:42:21;101931.22;;;5.23;88.19
4273;BME280;63887;53.656;9.810;2023-02-02T09:44:58;101925.13;;;5.24;88.11
4273;BME280;63887;53.656;9.810;2023-02-02T09:47:28;101939.91;;;5.22;88.23
4273;BME280;63887;53.656;9.810;2023-02-02T09:49:59;101929.31;;;5.36;88.17
4273;BME280;63887;53.656;9.810;2023-02-02T09:52:28;101937.13;;;5.36;87.87
4273;BME280;63887;53.656;9.810;2023-02-02T09:54:56;101937.03;;;5.41;87.74
4273;BME280;63887;53.656;9.810;2023-02-02T09:57:24;101932.66;;;5.43;87.57
4273;BME280;63887;53.656;9.810;2023-02-02T09:59:52;101945.56;;;5.52;87.25
4273;BME280;63887;53.656;9.810;2023-02-02T10:02:21;101940.06;;;5.70;86.35
4273;BME280;63887;53.656;9.810;2023-02-02T10:04:49;101947.75;;;5.78;86.03
4273;BME280;63887;53.656;9.810;2023-02-02T10:07:18;101948.38;;;5.93;85.60
4273;BME280;63887;53.656;9.810;2023-02-02T10:09:45;101951.81;;;5.97;85.10
4273;BME280;63887;53.656;9.810;2023-02-02T10:12:17;101948.38;;;5.96;85.56
4273;BME280;63887;53.656;9.810;2023-02-02T10:14:48;101959.56;;;6.00;85.03
4273;BME280;63887;53.656;9.810;2023-02-02T10:17:29;101970.06;;;5.95;84.96
4273;BME280;63887;53.656;9.810;2023-02-02T10:20:02;101961.31;;;6.00;83.02
4273;BME280;63887;53.656;9.810;2023-02-02T10:22:34;101960.50;;;5.94;83.49
4273;BME280;63887;53.656;9.810;2023-02-02T10:25:00;101970.84;;;6.01;83.38
4273;BME280;63887;53.656;9.810;2023-02-02T10:27:30;101982.91;;;6.06;84.59
4273;BME280;63887;53.656;9.810;2023-02-02T10:30:03;101992.78;;;6.38;82.45
4273;BME280;63887;53.656;9.810;2023-02-02T10:32:34;101994.56;;;6.36;81.38
4273;BME280;63887;53.656;9.810;2023-02-02T10:37:47;102008.56;;;6.31;81.61
4273;BME280;63887;53.656;9.810;2023-02-02T10:40:20;102011.97;;;6.34;81.77
4273;BME280;63887;53.656;9.810;2023-02-02T10:42:54;102025.09;;;6.30;83.12
4273;BME280;63887;53.656;9.810;2023-02-02T10:45:47;102033.53;;;6.44;81.86
4273;BME280;63887;53.656;9.810;2023-02-02T10:48:15;102022.16;;;6.48;82.15
4273;BME280;63887;53.656;9.810;2023-02-02T10:50:43;102025.75;;;6.42;81.46
4273;BME280;63887;53.656;9.810;2023-02-02T10:53:12;102033.63;;;6.36;81.36
4273;BME280;63887;53.656;9.810;2023-02-02T10:55:39;102025.78;;;6.38;81.21
4273;BME280;63887;53.656;9.810;2023-02-02T10:58:11;102032.75;;;6.37;81.81
4273;BME280;63887;53.656;9.810;2023-02-02T11:00:46;102037.78;;;6.48;81.09
4273;BME280;63887;53.656;9.810;2023-02-02T11:03:16;102036.81;;;6.55;80.42
4273;BME280;63887;53.656;9.810;2023-02-02T11:05:44;102036.84;;;6.52;80.28
4273;BME280;63887;53.656;9.810;2023-02-02T11:08:29;102039.38;;;6.56;78.95
4273;BME280;63887;53.656;9.810;2023-02-02T11:10:57;102035.84;;;6.61;79.04
4273;BME280;63887;53.656;9.810;2023-02-02T11:13:28;102040.00;;;6.69;78.26
4273;BME280;63887;53.656;9.810;2023-02-02T11:18:52;102030.34;;;6.76;78.31
4273;BME280;63887;53.656;9.810;2023-02-02T11:21:19;102042.59;;;6.72;78.94
4273;BME280;63887;53.656;9.810;2023-02-02T11:23:49;102043.34;;;6.77;77.28
4273;BME280;63887;53.656;9.810;2023-02-02T11:26:16;102048.63;;;6.74;76.81
4273;BME280;63887;53.656;9.810;2023-02-02T11:28:45;102036.53;;;6.69;77.11
4273;BME280;63887;53.656;9.810;2023-02-02T11:31:27;102038.31;;;6.67;77.25
4273;BME280;63887;53.656;9.810;2023-02-02T11:33:55;102034.75;;;6.72;75.56
4273;BME280;63887;53.656;9.810;2023-02-02T11:36:32;102042.69;;;6.66;76.30
4273;BME280;63887;53.656;9.810;2023-02-02T11:39:11;102042.38;;;6.84;75.44
4273;BME280;63887;53.656;9.810;2023-02-02T11:41:39;102045.69;;;6.91;75.16
4273;BME280;63887;53.656;9.810;2023-02-02T11:44:09;102046.34;;;7.04;74.37
4273;BME280;63887;53.656;9.810;2023-02-02T11:46:38;102039.25;;;7.09;74.02
4273;BME280;63887;53.656;9.810;2023-02-02T11:49:05;102052.28;;;7.10;74.47
4273;BME280;63887;53.656;9.810;2023-02-02T11:51:32;102048.81;;;7.10;74.16
4273;BME280;63887;53.656;9.810;2023-02-02T11:54:00;102047.97;;;7.08;75.55
4273;BME280;63887;53.656;9.810;2023-02-02T11:56:27;102055.03;;;7.03;74.84
4273;BME280;63887;53.656;9.810;2023-02-02T11:58:54;102049.59;;;7.13;74.55
4273;BME280;63887;53.656;9.810;2023-02-02T12:01:25;102049.00;;;6.99;74.37
4273;BME280;63887;53.656;9.810;2023-02-02T12:03:53;102050.75;;;7.00;75.55
4273;BME280;63887;53.656;9.810;2023-02-02T12:06:20;102052.56;;;6.95;75.41
4273;BME280;63887;53.656;9.810;2023-02-02T12:08:47;102052.69;;;6.89;76.62
4273;BME280;63887;53.656;9.810;2023-02-02T12:11:19;102053.38;;;7.00;75.84
4273;BME280;63887;53.656;9.810;2023-02-02T12:13:49;102056.06;;;6.94;75.90
4273;BME280;63887;53.656;9.810;2023-02-02T12:16:28;102060.59;;;6.86;75.85
4273;BME280;63887;53.656;9.810;2023-02-02T12:18:59;102060.63;;;6.84;76.04
4273;BME280;63887;53.656;9.810;2023-02-02T12:21:33;102058.66;;;6.96;74.46
4273;BME280;63887;53.656;9.810;2023-02-02T12:24:04;102067.41;;;6.92;76.55
4273;BME280;63887;53.656;9.810;2023-02-02T12:26:37;102075.09;;;7.01;75.60
4273;BME280;63887;53.656;9.810;2023-02-02T12:31:58;102067.50;;;6.88;77.42
4273;BME280;63887;53.656;9.810;2023-02-02T12:34:29;102072.78;;;6.82;77.05
4273;BME280;63887;53.656;9.810;2023-02-02T12:37:00;102070.19;;;6.82;77.08
4273;BME280;63887;53.656;9.810;2023-02-02T12:39:32;102064.09;;;6.85;76.08
4273;BME280;63887;53.656;9.810;2023-02-02T12:42:13;102067.50;;;6.88;76.29
4273;BME280;63887;53.656;9.810;2023-02-02T12:44:44;102071.63;;;6.99;75.21
4273;BME280;63887;53.656;9.810;2023-02-02T12:47:18;102074.22;;;6.99;75.06
4273;BME280;63887;53.656;9.810;2023-02-02T12:49:52;102071.53;;;7.05;74.09
4273;BME280;63887;53.656;9.810;2023-02-02T12:52:27;102062.69;;;7.12;74.51
4273;BME280;63887;53.656;9.810;2023-02-02T12:55:01;102068.84;;;7.08;76.25
4273;BME280;63887;53.656;9.810;2023-02-02T12:57:33;102074.75;;;7.17;75.78
4273;BME280;63887;53.656;9.810;2023-02-02T13:00:08;102083.97;;;7.35;74.61
4273;BME280;63887;53.656;9.810;2023-02-02T13:02:40;102083.03;;;7.38;73.42
4273;BME280;63887;53.656;9.810;2023-02-02T13:05:17;102082.25;;;7.34;74.19
4273;BME280;63887;53.656;9.810;2023-02-02T13:07:47;102075.34;;;7.32;73.80
4273;BME280;63887;53.656;9.810;2023-02-02T13:10:15;102078.84;;;7.31;74.74
4273;BME280;63887;53.656;9.810;2023-02-02T13:12:45;102077.84;;;7.36;74.76
4273;BME280;63887;53.656;9.810;2023-02-02T13:15:14;102082.97;;;7.41;73.17
4273;BME280;63887;53.656;9.810;2023-02-02T13:17:45;102082.22;;;7.36;72.83
4273;BME280;63887;53.656;9.810;2023-02-02T13:20:17;102084.41;;;7.56;75.57
4273;BME280;63887;53.656;9.810;2023-02-02T13:22:45;102084.59;;;7.48;73.90
4273;BME280;63887;53.656;9.810;2023-02-02T13:25:14;102081.03;;;7.51;72.15
4273;BME280;63887;53.656;9.810;2023-02-02T13:27:43;102083.75;;;7.46;72.71
4273;BME280;63887;53.656;9.810;2023-02-02T13:30:12;102084.69;;;7.42;72.37